Time;durP1;ratioP1;P1;durP2;ratioP2;P2;SDS_P1;SDS_P2;PMS_P1;PMS_P2;Temp;Humidity;BMP_temperature;BMP_pressure;BME280_temperature;BME280_humidity;BME280_pressure;Samples;Min_cycle;Max_cycle;Signal;HPM_P1;HPM_P2
2022/04/09 00:01:41;;;;;;;33.85;7.75;;;11.90;99.90;;;;;;5112145;28;20390;-65
2022/04/09 00:04:45;;;;;;;28.48;5.32;;;11.90;99.90;;;;;;5112109;28;20046;-65
2022/04/09 00:07:49;;;;;;;29.60;6.63;;;11.80;99.90;;;;;;5111216;28;20058;-65
2022/04/09 00:10:53;;;;;;;22.63;5.93;;;11.80;99.90;;;;;;5109986;28;20062;-66
2022/04/09 00:13:57;;;;;;;29.90;4.53;;;11.80;99.90;;;;;;5111920;28;20046;-64
2022/04/09 00:17:01;;;;;;;23.58;6.30;;;12.00;99.90;;;;;;5111768;28;20043;-64
2022/04/09 00:20:06;;;;;;;22.73;4.60;;;12.00;99.90;;;;;;5111456;28;20046;-65
2022/04/09 00:23:10;;;;;;;23.02;6.35;;;12.10;99.90;;;;;;5111793;28;20109;-64
2022/04/09 00:26:14;;;;;;;46.97;15.10;;;12.10;99.90;;;;;;5111286;28;20386;-65
2022/04/09 00:29:18;;;;;;;32.00;5.05;;;12.10;99.90;;;;;;5111439;28;20425;-65
2022/04/09 00:32:22;;;;;;;23.92;4.22;;;12.00;99.90;;;;;;5110793;28;20050;-65
2022/04/09 00:35:26;;;;;;;23.10;5.70;;;11.90;99.90;;;;;;5111512;28;20039;-65
2022/04/09 00:38:30;;;;;;;27.13;5.45;;;11.80;99.90;;;;;;5111471;28;20117;-65
2022/04/09 00:41:34;;;;;;;35.25;7.25;;;11.80;99.90;;;;;;5111510;28;20192;-64
2022/04/09 00:44:38;;;;;;;27.58;5.20;;;11.80;99.90;;;;;;5111001;28;20039;-64
2022/04/09 00:47:43;;;;;;;32.80;4.72;;;11.80;99.90;;;;;;5110777;28;20051;-65
2022/04/09 00:50:48;;;;;;;25.52;5.25;;;11.80;99.90;;;;;;5110357;28;20042;-65
2022/04/09 00:53:53;;;;;;;23.73;5.32;;;11.80;99.90;;;;;;5110284;28;20046;-64
2022/04/09 00:57:06;;;;;;;32.95;6.18;;;11.80;99.90;;;;;;5110742;28;20046;-64
2022/04/09 01:00:10;;;;;;;31.75;5.80;;;11.80;99.90;;;;;;5111129;28;20054;-65
2022/04/09 01:03:18;;;;;;;25.42;6.15;;;11.80;99.90;;;;;;5109994;28;20425;-64
2022/04/09 01:06:24;;;;;;;29.55;5.32;;;11.70;99.90;;;;;;5109781;28;20038;-65
2022/04/09 01:09:28;;;;;;;31.23;6.15;;;11.70;99.90;;;;;;5110796;28;20051;-64
2022/04/09 01:12:34;;;;;;;23.23;4.45;;;11.70;99.90;;;;;;5110859;28;20042;-64
2022/04/09 01:15:38;;;;;;;37.58;6.00;;;11.80;99.90;;;;;;5110009;28;20046;-65
2022/04/09 01:18:43;;;;;;;24.73;4.72;;;11.80;99.90;;;;;;5110100;28;20061;-64
2022/04/09 01:21:50;;;;;;;26.83;4.90;;;11.80;99.90;;;;;;5109925;28;20055;-65
2022/04/09 01:24:54;;;;;;;32.75;5.95;;;11.80;99.90;;;;;;5109910;28;20070;-65
2022/04/09 01:27:58;;;;;;;27.42;5.88;;;11.80;99.90;;;;;;5110252;28;20042;-65
2022/04/09 01:31:03;;;;;;;26.33;4.93;;;11.90;99.90;;;;;;5110328;28;20074;-65
2022/04/09 01:34:08;;;;;;;26.30;5.25;;;11.80;99.90;;;;;;5108970;28;20038;-65
2022/04/09 01:37:14;;;;;;;28.30;5.85;;;11.70;99.90;;;;;;5110030;28;20485;-64
2022/04/09 01:40:19;;;;;;;24.25;5.88;;;11.70;99.90;;;;;;5109724;28;20042;-65
2022/04/09 01:43:28;;;;;;;23.25;6.13;;;11.80;99.90;;;;;;5109554;28;20039;-65
2022/04/09 01:46:32;;;;;;;28.30;5.50;;;11.70;99.90;;;;;;5112920;28;20047;-65
2022/04/09 01:49:36;;;;;;;23.40;5.65;;;11.60;99.90;;;;;;5114333;28;20039;-64
2022/04/09 01:52:40;;;;;;;20.70;4.93;;;11.50;99.90;;;;;;5113375;28;20046;-65
2022/04/09 01:55:44;;;;;;;32.97;4.45;;;11.60;99.90;;;;;;5113277;28;20038;-64
2022/04/09 01:58:49;;;;;;;24.67;4.55;;;11.50;99.90;;;;;;5113564;28;20508;-65
2022/04/09 02:01:55;;;;;;;22.33;5.32;;;11.50;99.90;;;;;;5113292;28;20058;-64
2022/04/09 02:05:01;;;;;;;21.73;4.78;;;11.60;99.90;;;;;;5113391;28;20062;-65
2022/04/09 02:08:06;;;;;;;28.45;6.63;;;11.50;99.90;;;;;;5112901;28;20044;-65
2022/04/09 02:11:10;;;;;;;23.80;4.20;;;11.40;99.90;;;;;;5113025;28;20042;-65
2022/04/09 02:14:17;;;;;;;24.70;4.80;;;11.50;99.90;;;;;;5113898;28;20059;-65
2022/04/09 02:17:22;;;;;;;24.02;6.28;;;11.40;99.90;;;;;;5113536;28;20485;-64
2022/04/09 02:20:26;;;;;;;20.98;5.13;;;11.50;99.90;;;;;;5114688;28;20051;-65
2022/04/09 02:23:30;;;;;;;32.20;4.85;;;11.40;99.90;;;;;;5113363;28;20046;-65
2022/04/09 02:26:36;;;;;;;23.83;4.55;;;11.60;99.90;;;;;;5112119;28;20046;-65
2022/04/09 02:29:40;;;;;;;25.05;5.15;;;11.80;99.90;;;;;;5113036;28;20051;-64
2022/04/09 02:32:50;;;;;;;19.08;4.70;;;11.80;99.90;;;;;;5112839;28;20394;-64
2022/04/09 02:35:57;;;;;;;26.75;5.13;;;11.80;99.90;;;;;;5112723;28;20405;-65
2022/04/09 02:39:03;;;;;;;24.13;4.80;;;11.60;99.90;;;;;;5113191;28;20042;-65
2022/04/09 02:42:07;;;;;;;17.27;3.97;;;11.60;99.90;;;;;;5112783;28;20402;-65
2022/04/09 02:45:12;;;;;;;18.40;3.85;;;11.70;99.90;;;;;;5112773;28;20051;-65
2022/04/09 02:48:17;;;;;;;26.30;4.30;;;11.70;99.90;;;;;;5112440;28;20067;-65
2022/04/09 02:51:23;;;;;;;21.48;4.53;;;11.60;99.90;;;;;;5112116;28;20444;-64
2022/04/09 02:54:27;;;;;;;20.02;4.53;;;11.50;99.90;;;;;;5112389;28;20050;-65
2022/04/09 02:57:37;;;;;;;21.05;5.10;;;11.50;99.90;;;;;;5111641;28;20050;-64
2022/04/09 03:00:42;;;;;;;25.08;5.20;;;11.20;99.90;;;;;;5112326;28;20505;-64
2022/04/09 03:03:45;;;;;;;21.13;6.20;;;11.10;99.90;;;;;;5112451;28;20039;-64
2022/04/09 03:06:49;;;;;;;19.80;4.25;;;11.10;99.90;;;;;;5112810;28;20501;-65
2022/04/09 03:09:53;;;;;;;28.17;5.60;;;11.10;99.90;;;;;;5113265;28;20046;-65
2022/04/09 03:12:58;;;;;;;29.70;6.90;;;11.10;99.90;;;;;;5113124;28;20482;-65
2022/04/09 03:16:02;;;;;;;26.60;5.28;;;11.10;99.90;;;;;;5111814;28;20043;-65
2022/04/09 03:19:06;;;;;;;26.17;4.28;;;11.10;99.90;;;;;;5112613;28;20054;-65
2022/04/09 03:22:10;;;;;;;23.85;4.60;;;11.20;99.90;;;;;;5112004;28;20039;-65
2022/04/09 03:25:17;;;;;;;25.52;5.18;;;11.30;99.90;;;;;;5111191;28;20046;-65
2022/04/09 03:28:24;;;;;;;21.83;5.30;;;11.40;99.90;;;;;;5111512;28;20039;-65
2022/04/09 03:31:28;;;;;;;19.10;5.00;;;11.50;99.90;;;;;;5111792;28;20047;-65
2022/04/09 03:34:33;;;;;;;22.63;4.28;;;11.50;99.90;;;;;;5110908;28;20042;-65
2022/04/09 03:37:40;;;;;;;21.75;3.65;;;11.60;99.90;;;;;;5111184;28;20042;-65
2022/04/09 03:40:45;;;;;;;21.98;4.82;;;11.50;99.90;;;;;;5111714;28;20509;-64
2022/04/09 03:43:50;;;;;;;26.92;6.15;;;11.40;99.90;;;;;;5111411;28;20053;-64
2022/04/09 03:47:02;;;;;;;22.25;4.80;;;11.40;99.90;;;;;;5111143;28;20398;-65
2022/04/09 03:50:09;;;;;;;22.67;4.72;;;11.30;99.90;;;;;;5111163;28;20050;-65
2022/04/09 03:53:19;;;;;;;34.92;5.57;;;11.20;99.90;;;;;;5111741;28;20050;-65
2022/04/09 03:56:24;;;;;;;25.77;4.75;;;11.10;99.90;;;;;;5111052;28;20031;-65
2022/04/09 03:59:28;;;;;;;19.55;4.47;;;11.20;99.90;;;;;;5111732;28;20050;-65
2022/04/09 04:02:32;;;;;;;20.98;4.70;;;11.20;99.90;;;;;;5112308;28;20046;-64
2022/04/09 04:05:37;;;;;;;27.98;4.82;;;11.30;99.90;;;;;;5111140;28;20067;-65
2022/04/09 04:08:43;;;;;;;27.08;4.68;;;11.30;99.90;;;;;;5111132;28;20042;-65
2022/04/09 04:11:51;;;;;;;28.42;4.90;;;11.30;99.90;;;;;;5110837;28;20043;-65
2022/04/09 04:14:57;;;;;;;25.92;4.50;;;11.30;99.90;;;;;;5111240;28;20046;-65
2022/04/09 04:18:02;;;;;;;19.67;4.82;;;11.30;99.90;;;;;;5110392;28;20036;-65
2022/04/09 04:21:11;;;;;;;18.92;4.97;;;11.10;99.90;;;;;;5110742;28;20042;-65
2022/04/09 04:24:17;;;;;;;33.47;5.97;;;11.00;99.90;;;;;;5111446;28;20395;-65
2022/04/09 04:27:22;;;;;;;27.13;5.60;;;11.00;99.90;;;;;;5110220;28;20042;-65
2022/04/09 04:30:25;;;;;;;29.60;5.90;;;10.90;99.90;;;;;;5110202;28;20070;-64
2022/04/09 04:33:32;;;;;;;20.45;4.70;;;10.90;99.90;;;;;;5110027;28;20505;-65
2022/04/09 04:36:36;;;;;;;27.20;4.63;;;10.80;99.90;;;;;;5110106;28;20042;-66
2022/04/09 04:39:41;;;;;;;20.25;5.22;;;10.70;99.90;;;;;;5110293;28;20042;-65
2022/04/09 04:42:45;;;;;;;27.75;5.13;;;10.70;99.90;;;;;;5110115;28;20510;-65
2022/04/09 04:45:51;;;;;;;25.33;5.50;;;10.70;99.90;;;;;;5110377;28;20047;-65
2022/04/09 04:48:56;;;;;;;20.85;4.43;;;10.60;99.90;;;;;;5111263;28;20062;-65
2022/04/09 04:52:03;;;;;;;25.10;4.43;;;10.50;99.90;;;;;;5110045;28;20047;-65
2022/04/09 04:55:11;;;;;;;21.42;4.45;;;10.60;99.90;;;;;;5110431;28;20042;-65
2022/04/09 04:58:19;;;;;;;21.48;5.75;;;10.70;99.90;;;;;;5109642;28;20038;-65
2022/04/09 05:01:29;;;;;;;;;;;10.90;99.90;;;;;;5110405;28;20043;-65
2022/04/09 05:04:40;;;;;;;21.83;4.65;;;11.20;99.90;;;;;;5110254;28;19907;-64
2022/04/09 05:07:49;;;;;;;19.13;5.13;;;11.30;99.90;;;;;;5109451;28;20062;-64
2022/04/09 05:10:55;;;;;;;30.58;4.97;;;11.30;99.90;;;;;;5110026;28;20050;-65
2022/04/09 05:14:03;;;;;;;27.52;4.40;;;11.30;99.90;;;;;;5109904;28;20043;-65
2022/04/09 05:17:09;;;;;;;27.50;4.85;;;11.20;99.90;;;;;;5109904;28;20047;-64
2022/04/09 05:20:16;;;;;;;25.52;5.00;;;11.20;99.90;;;;;;5109511;28;20039;-65
2022/04/09 05:23:23;;;;;;;20.10;5.28;;;11.20;99.90;;;;;;5109896;28;20046;-64
2022/04/09 05:26:27;;;;;;;29.95;6.13;;;10.70;99.90;;;;;;5109022;28;20043;-66
2022/04/09 05:29:32;;;;;;;36.78;6.75;;;10.50;99.90;;;;;;5109552;28;20054;-64
2022/04/09 05:32:39;;;;;;;25.85;5.22;;;10.50;99.90;;;;;;5108950;28;20403;-64
2022/04/09 05:35:44;;;;;;;38.03;5.90;;;10.70;99.90;;;;;;5109737;28;20522;-65
2022/04/09 05:38:49;;;;;;;26.17;6.05;;;10.80;99.90;;;;;;5110573;28;20509;-65
2022/04/09 05:41:53;;;;;;;25.10;5.65;;;11.00;99.90;;;;;;5110588;28;20046;-65
2022/04/09 05:44:57;;;;;;;26.70;5.88;;;11.20;99.90;;;;;;5110546;28;20047;-65
2022/04/09 05:48:05;;;;;;;21.77;5.35;;;11.30;99.90;;;;;;5109075;28;20378;-65
2022/04/09 05:51:24;;;;;;;19.08;5.32;;;11.70;99.90;;;;;;5109435;28;20035;-66
2022/04/09 05:54:31;;;;;;;24.25;6.72;;;12.20;99.90;;;;;;5110692;28;20387;-65
2022/04/09 05:57:36;;;;;;;19.52;5.95;;;12.30;99.90;;;;;;5107314;28;20501;-64
2022/04/09 06:00:43;;;;;;;27.00;6.47;;;12.20;99.90;;;;;;5103315;28;20066;-64
2022/04/09 06:04:01;;;;;;;21.73;6.35;;;12.10;99.90;;;;;;5107277;28;20051;-65
2022/04/09 06:07:05;;;;;;;19.98;5.32;;;12.10;99.90;;;;;;5101764;28;20050;-65
2022/04/09 06:10:17;;;;;;;26.08;5.97;;;12.20;99.90;;;;;;5108062;28;20378;-64
2022/04/09 06:13:22;;;;;;;23.05;5.57;;;12.40;99.90;;;;;;5101830;28;20039;-64
2022/04/09 06:16:26;;;;;;;34.15;6.93;;;12.50;99.90;;;;;;5110633;28;20098;-64
2022/04/09 06:19:32;;;;;;;25.58;5.57;;;12.80;99.90;;;;;;5103524;28;20398;-65
2022/04/09 06:22:36;;;;;;;27.35;8.60;;;13.10;99.90;;;;;;5101345;28;20042;-65
2022/04/09 06:25:42;;;;;;;26.00;6.45;;;13.50;99.90;;;;;;5105235;28;20054;-65
2022/04/09 06:28:48;;;;;;;21.63;5.47;;;13.60;99.90;;;;;;5105239;28;20054;-66
2022/04/09 06:31:53;;;;;;;34.22;7.63;;;13.50;99.90;;;;;;5105305;28;20046;-65
2022/04/09 06:34:57;;;;;;;33.50;9.45;;;13.40;99.90;;;;;;5108678;28;20038;-64
2022/04/09 06:38:03;;;;;;;29.35;8.30;;;13.40;99.90;;;;;;5108891;28;20043;-64
2022/04/09 06:41:07;;;;;;;23.15;6.57;;;14.00;99.90;;;;;;5109938;28;20051;-65
2022/04/09 06:44:16;;;;;;;28.70;6.68;;;15.50;99.90;;;;;;5103966;28;20548;-65
2022/04/09 06:47:27;;;;;;;23.23;4.85;;;16.70;99.90;;;;;;5098299;28;20051;-65
2022/04/09 06:50:37;;;;;;;19.95;4.95;;;18.30;99.90;;;;;;5108761;28;20043;-65
2022/04/09 06:53:41;;;;;;;13.07;4.35;;;18.70;99.90;;;;;;5100115;28;20055;-66
2022/04/09 06:56:45;;;;;;;17.73;4.35;;;19.60;99.90;;;;;;5110819;28;20666;-65
2022/04/09 06:59:50;;;;;;;22.67;5.20;;;19.60;99.90;;;;;;5112101;28;20390;-65
2022/04/09 07:02:55;;;;;;;21.65;5.13;;;18.80;99.90;;;;;;5112046;28;20051;-66
2022/04/09 07:05:59;;;;;;;27.00;7.00;;;18.40;99.90;;;;;;5112009;28;20046;-65
2022/04/09 07:09:03;;;;;;;30.13;9.35;;;17.00;99.90;;;;;;5113639;28;20164;-65
2022/04/09 07:12:08;;;;;;;29.60;13.07;;;17.30;99.90;;;;;;5110984;28;20042;-66
2022/04/09 07:15:12;;;;;;;35.10;13.27;;;17.50;99.90;;;;;;5108532;28;20371;-65
2022/04/09 07:18:16;;;;;;;35.97;13.43;;;17.00;99.90;;;;;;5109422;28;20039;-65
2022/04/09 07:21:20;;;;;;;28.25;9.10;;;16.80;99.90;;;;;;5105171;28;20046;-65
2022/04/09 07:24:25;;;;;;;22.75;7.30;;;16.90;99.90;;;;;;5109461;28;20066;-64
2022/04/09 07:27:42;;;;;;;25.48;8.20;;;16.40;99.90;;;;;;5107332;28;20529;-65
2022/04/09 07:30:46;;;;;;;33.13;9.73;;;16.20;99.90;;;;;;5107482;28;20039;-65
2022/04/09 07:33:49;;;;;;;24.88;7.75;;;16.70;99.90;;;;;;5108031;28;20371;-65
2022/04/09 07:36:54;;;;;;;21.05;5.65;;;18.50;99.90;;;;;;5110851;28;20054;-66
2022/04/09 07:39:58;;;;;;;22.77;5.80;;;20.00;99.90;;;;;;5106403;28;20031;-65
2022/04/09 07:43:02;;;;;;;21.45;6.50;;;21.20;99.90;;;;;;5108866;28;20394;-66
2022/04/09 07:46:06;;;;;;;24.98;5.75;;;21.80;99.90;;;;;;5104879;28;20054;-65
2022/04/09 07:49:11;;;;;;;23.13;4.90;;;20.50;99.90;;;;;;5104693;28;20050;-66
2022/04/09 07:52:15;;;;;;;27.08;6.53;;;18.10;99.90;;;;;;5108538;28;20062;-65
2022/04/09 07:55:19;;;;;;;28.52;8.20;;;18.20;99.90;;;;;;5107914;28;20055;-66
2022/04/09 07:58:23;;;;;;;26.45;9.25;;;19.80;99.90;;;;;;5104148;28;20586;-65
2022/04/09 08:01:28;;;;;;;26.20;6.55;;;18.00;99.90;;;;;;5110014;28;20386;-66
2022/04/09 08:04:32;;;;;;;20.05;6.35;;;18.80;99.90;;;;;;5110740;28;20058;-65
2022/04/09 08:07:36;;;;;;;32.58;9.00;;;16.70;99.90;;;;;;5107494;28;20050;-65
2022/04/09 08:10:39;;;;;;;28.63;9.10;;;16.10;99.90;;;;;;5106308;28;20047;-65
2022/04/09 08:13:43;;;;;;;28.08;8.27;;;16.00;99.90;;;;;;5108466;28;20539;-65
2022/04/09 08:16:47;;;;;;;22.90;6.65;;;17.20;99.90;;;;;;5107057;28;20114;-65
2022/04/09 08:19:52;;;;;;;27.90;6.78;;;16.70;99.90;;;;;;5108616;28;20046;-65
2022/04/09 08:22:56;;;;;;;23.40;8.18;;;17.30;99.90;;;;;;5107435;28;20046;-65
2022/04/09 08:26:01;;;;;;;16.02;5.05;;;18.00;99.90;;;;;;5099020;28;20047;-65
2022/04/09 08:29:05;;;;;;;21.48;4.53;;;18.20;99.90;;;;;;5109185;28;20043;-65
2022/04/09 08:32:10;;;;;;;26.77;4.90;;;18.70;99.90;;;;;;5107959;28;20398;-65
2022/04/09 08:35:14;;;;;;;21.60;5.57;;;19.20;99.90;;;;;;5104800;28;20047;-65
2022/04/09 08:38:18;;;;;;;24.50;6.50;;;19.40;99.90;;;;;;5108034;28;20039;-64
2022/04/09 08:41:23;;;;;;;31.02;6.50;;;19.50;99.90;;;;;;5104173;28;20417;-64
2022/04/09 08:44:30;;;;;;;21.40;6.10;;;17.60;99.90;;;;;;5106387;28;20051;-64
2022/04/09 08:47:35;;;;;;;28.83;9.32;;;16.40;99.90;;;;;;5106032;28;20050;-65
2022/04/09 08:50:43;;;;;;;28.30;8.77;;;17.20;99.90;;;;;;5098777;28;20129;-64
2022/04/09 08:53:49;;;;;;;22.70;6.55;;;17.60;99.90;;;;;;5105564;28;20047;-64
2022/04/09 08:56:54;;;;;;;27.00;6.43;;;17.50;99.90;;;;;;5105722;28;20047;-64
2022/04/09 08:59:57;;;;;;;19.00;4.82;;;17.50;99.90;;;;;;5107217;28;20042;-64
2022/04/09 09:03:03;;;;;;;27.92;4.63;;;16.30;99.90;;;;;;5108291;28;20046;-65
2022/04/09 09:06:28;;;;;;;24.15;5.30;;;16.80;99.90;;;;;;5108656;28;20046;-64
2022/04/09 09:09:32;;;;;;;19.90;6.03;;;17.30;99.90;;;;;;5103647;28;20046;-64
2022/04/09 09:12:37;;;;;;;19.92;6.55;;;18.20;99.90;;;;;;5101925;28;20047;-64
2022/04/09 09:15:52;;;;;;;21.80;4.57;;;19.00;99.90;;;;;;5106100;28;20054;-63
2022/04/09 09:18:58;;;;;;;21.17;4.63;;;19.10;99.90;;;;;;5105169;28;20047;-64
2022/04/09 09:22:05;;;;;;;17.55;3.58;;;19.00;99.90;;;;;;5107904;28;20047;-64
2022/04/09 09:25:11;;;;;;;18.00;3.67;;;18.90;97.40;;;;;;5110222;28;20148;-64
2022/04/09 09:28:28;;;;;;;16.02;3.30;;;20.50;99.00;;;;;;5106896;28;20386;-65
2022/04/09 09:31:43;;;;;;;16.23;3.38;;;22.90;96.10;;;;;;5108183;28;20047;-66
2022/04/09 09:34:54;;;;;;;15.63;2.97;;;22.60;91.80;;;;;;5102381;28;20043;-65
2022/04/09 09:38:17;;;;;;;11.93;2.53;;;22.00;91.70;;;;;;5109214;28;20058;-65
2022/04/09 09:41:23;;;;;;;11.27;2.88;;;23.10;88.90;;;;;;5110179;28;20043;-65
2022/04/09 09:44:34;;;;;;;13.55;2.50;;;25.10;85.70;;;;;;5100019;28;20042;-66
2022/04/09 09:47:55;;;;;;;10.30;2.60;;;27.50;81.50;;;;;;5106719;28;20046;-67
2022/04/09 09:51:00;;;;;;;12.27;2.50;;;30.40;72.60;;;;;;5107890;28;20061;-65
2022/04/09 09:54:08;;;;;;;7.72;2.58;;;31.10;68.40;;;;;;5106299;28;20054;-66
2022/04/09 09:57:20;;;;;;;11.63;2.35;;;31.00;64.30;;;;;;5098307;28;20047;-66
2022/04/09 10:00:25;;;;;;;11.43;2.40;;;30.60;65.60;;;;;;5102065;28;20517;-65
2022/04/09 10:03:28;;;;;;;9.15;2.53;;;25.90;64.00;;;;;;5096817;28;20067;-65
2022/04/09 10:06:34;;;;;;;11.02;2.63;;;25.90;65.50;;;;;;5105164;28;20034;-66
2022/04/09 10:09:38;;;;;;;9.32;2.50;;;26.40;64.90;;;;;;5107796;28;20054;-65
2022/04/09 10:12:43;;;;;;;14.95;3.85;;;26.70;63.60;;;;;;5107113;28;20046;-66
2022/04/09 10:15:50;;;;;;;15.60;3.85;;;25.30;64.30;;;;;;5105490;28;20042;-66
2022/04/09 10:18:59;;;;;;;12.02;2.72;;;27.80;66.50;;;;;;5112230;28;20398;-66
2022/04/09 10:22:05;;;;;;;7.40;2.60;;;29.60;62.30;;;;;;5113155;28;20043;-65
2022/04/09 10:25:09;;;;;;;8.18;2.33;;;30.50;59.30;;;;;;5105773;28;20043;-66
2022/04/09 10:28:30;;;;;;;11.45;2.65;;;29.10;61.40;;;;;;5103951;28;20517;-65
2022/04/09 10:31:36;;;;;;;9.95;1.83;;;29.70;58.90;;;;;;5079526;28;20047;-66
2022/04/09 10:34:52;;;;;;;10.20;2.63;;;28.40;59.50;;;;;;5101672;28;20122;-66
2022/04/09 10:38:12;;;;;;;10.40;2.90;;;29.50;60.20;;;;;;5097832;28;20054;-66
2022/04/09 10:41:27;;;;;;;8.15;2.75;;;30.70;61.20;;;;;;5106947;28;20050;-66
2022/04/09 10:44:48;;;;;;;11.27;2.45;;;32.10;61.10;;;;;;5109056;28;20390;-66
2022/04/09 10:48:10;;;;;;;9.95;2.13;;;34.20;59.40;;;;;;5104129;28;20042;-64
2022/04/09 10:51:15;;;;;;;9.82;2.50;;;34.60;54.80;;;;;;5105459;28;20038;-64
2022/04/09 10:54:21;;;;;;;10.95;2.05;;;31.80;54.20;;;;;;5114235;28;20151;-65
2022/04/09 10:57:25;;;;;;;10.18;2.30;;;29.30;56.10;;;;;;5113500;28;20390;-65
2022/04/09 11:00:30;;;;;;;8.23;2.28;;;28.30;57.30;;;;;;5114008;28;20039;-64
2022/04/09 11:03:34;;;;;;;11.65;2.70;;;27.90;58.90;;;;;;5113798;28;20650;-65
2022/04/09 11:06:43;;;;;;;15.15;2.83;;;24.80;57.80;;;;;;5112859;28;20042;-64
2022/04/09 11:10:01;;;;;;;12.90;2.67;;;23.60;64.80;;;;;;5113833;28;20383;-64
2022/04/09 11:13:10;;;;;;;18.33;3.08;;;22.40;68.40;;;;;;5113872;28;20047;-67
2022/04/09 11:16:14;;;;;;;12.02;2.88;;;22.20;69.90;;;;;;5112630;28;20047;-63
2022/04/09 11:19:21;;;;;;;13.90;2.60;;;22.10;70.00;;;;;;5113725;28;20050;-65
2022/04/09 11:22:37;;;;;;;16.75;3.30;;;22.10;71.60;;;;;;5113353;28;20046;-66
2022/04/09 11:25:43;;;;;;;15.48;3.25;;;22.00;71.30;;;;;;5113704;28;20034;-66
2022/04/09 11:28:47;;;;;;;13.20;2.92;;;22.10;72.00;;;;;;5113557;28;20042;-66
2022/04/09 11:31:51;;;;;;;15.43;3.50;;;22.00;71.60;;;;;;5113580;28;20047;-67
2022/04/09 11:35:10;;;;;;;16.50;3.92;;;22.00;72.00;;;;;;5113440;28;20053;-67
2022/04/09 11:38:15;;;;;;;16.85;3.33;;;22.10;72.30;;;;;;5112562;28;20054;-66
2022/04/09 11:41:22;;;;;;;15.75;3.53;;;22.20;74.30;;;;;;5113333;28;20129;-65
2022/04/09 11:44:27;;;;;;;13.70;3.60;;;22.30;72.60;;;;;;5113512;28;20054;-65
2022/04/09 11:47:32;;;;;;;17.95;3.28;;;22.00;72.20;;;;;;5112393;28;20031;-67
2022/04/09 11:50:39;;;;;;;12.57;3.25;;;22.50;73.50;;;;;;5113203;28;20653;-66
2022/04/09 11:53:43;;;;;;;12.25;2.85;;;22.80;68.60;;;;;;5111987;28;20042;-67
2022/04/09 11:56:47;;;;;;;15.27;3.10;;;23.80;70.40;;;;;;5112435;28;20489;-66
2022/04/09 11:59:53;;;;;;;15.77;3.10;;;24.10;67.90;;;;;;5112052;28;20050;-65
2022/04/09 12:03:05;;;;;;;13.93;3.28;;;23.60;70.70;;;;;;5112622;28;20038;-65
2022/04/09 12:06:09;;;;;;;12.43;2.70;;;22.30;73.00;;;;;;5111863;28;20043;-66
2022/04/09 12:09:13;;;;;;;16.25;3.38;;;22.30;73.10;;;;;;5112476;28;20038;-65
2022/04/09 12:12:19;;;;;;;14.45;3.05;;;22.60;72.50;;;;;;5110997;28;20043;-67
2022/04/09 12:15:32;;;;;;;12.57;2.60;;;23.10;72.30;;;;;;5112721;28;20050;-67
2022/04/09 12:18:37;;;;;;;13.50;2.80;;;23.80;71.20;;;;;;5112444;28;20051;-66
2022/04/09 12:21:42;;;;;;;18.52;3.08;;;24.10;70.60;;;;;;5112763;28;20513;-65
2022/04/09 12:24:53;;;;;;;11.48;2.63;;;24.30;70.70;;;;;;5112694;28;20066;-65
2022/04/09 12:27:57;;;;;;;13.30;2.55;;;25.80;68.70;;;;;;5111566;28;20047;-65
2022/04/09 12:31:03;;;;;;;15.30;3.13;;;26.10;66.60;;;;;;5112426;28;20047;-66
2022/04/09 12:34:07;;;;;;;13.82;2.85;;;24.10;65.50;;;;;;5112158;28;20043;-67
2022/04/09 12:37:12;;;;;;;14.43;3.50;;;24.40;68.70;;;;;;5111715;28;20626;-65
2022/04/09 12:40:19;;;;;;;13.73;3.58;;;24.10;70.00;;;;;;5112189;28;20051;-65
2022/04/09 12:43:32;;;;;;;15.48;2.95;;;23.70;70.70;;;;;;5111936;28;20058;-65
2022/04/09 12:46:49;;;;;;;18.17;2.95;;;24.60;70.70;;;;;;5111377;28;20047;-66
2022/04/09 12:49:53;;;;;;;12.68;3.03;;;25.20;70.40;;;;;;5111833;28;20047;-66
2022/04/09 12:53:07;;;;;;;19.52;3.22;;;25.40;68.60;;;;;;5111724;28;20051;-67
2022/04/09 12:56:13;;;;;;;20.50;3.60;;;25.40;68.20;;;;;;5111634;28;20047;-66
2022/04/09 12:59:18;;;;;;;12.65;3.00;;;26.00;69.30;;;;;;5111722;28;20066;-66
2022/04/09 13:02:22;;;;;;;10.40;3.05;;;27.40;66.40;;;;;;5111723;28;20050;-65
2022/04/09 13:05:26;;;;;;;12.90;2.97;;;29.50;64.50;;;;;;5111949;28;20046;-65
2022/04/09 13:08:30;;;;;;;7.68;2.45;;;30.00;62.00;;;;;;5111354;28;20035;-64
2022/04/09 13:11:34;;;;;;;11.23;2.60;;;29.20;63.20;;;;;;5111788;28;20093;-67
2022/04/09 13:14:38;;;;;;;8.70;1.98;;;27.50;61.00;;;;;;5111419;28;20051;-64
2022/04/09 13:17:42;;;;;;;12.38;3.45;;;27.40;64.10;;;;;;5110915;28;20038;-64
2022/04/09 13:20:46;;;;;;;11.38;2.78;;;23.90;63.60;;;;;;5111260;28;20047;-63
2022/04/09 13:23:50;;;;;;;10.63;2.42;;;24.80;67.30;;;;;;5111043;28;20046;-63
2022/04/09 13:26:54;;;;;;;8.60;2.67;;;25.60;64.40;;;;;;5110955;28;20042;-63
2022/04/09 13:30:00;;;;;;;12.98;3.10;;;25.70;61.40;;;;;;5110948;28;20043;-63
2022/04/09 13:33:05;;;;;;;13.23;2.83;;;24.30;63.60;;;;;;5111077;28;20051;-65
2022/04/09 13:36:09;;;;;;;14.90;2.50;;;24.30;62.60;;;;;;5110622;28;20058;-66
2022/04/09 13:39:16;;;;;;;10.48;2.28;;;25.00;63.50;;;;;;5111138;28;20546;-65
2022/04/09 13:42:20;;;;;;;10.90;2.50;;;25.80;63.50;;;;;;5115525;28;20051;-63
2022/04/09 13:45:24;;;;;;;9.93;2.88;;;25.00;60.60;;;;;;5115648;28;20042;-65
2022/04/09 13:48:27;;;;;;;15.90;2.45;;;24.30;63.90;;;;;;5115274;28;20043;-66
2022/04/09 13:51:32;;;;;;;13.32;3.28;;;24.50;66.30;;;;;;5114858;28;20051;-65
2022/04/09 13:54:36;;;;;;;12.35;2.40;;;23.80;65.40;;;;;;5115481;28;20043;-65
2022/04/09 13:57:40;;;;;;;15.52;2.90;;;23.40;65.50;;;;;;5114381;28;20050;-65
2022/04/09 14:00:47;;;;;;;13.68;3.03;;;23.60;65.00;;;;;;5115317;28;20105;-65
2022/04/09 14:03:51;;;;;;;13.55;3.58;;;22.70;64.70;;;;;;5115002;28;20047;-64
2022/04/09 14:06:55;;;;;;;13.45;3.58;;;21.90;68.90;;;;;;5114398;28;20043;-65
2022/04/09 14:10:01;;;;;;;18.25;4.07;;;21.70;70.80;;;;;;5114882;28;20059;-64
2022/04/09 14:13:05;;;;;;;15.00;2.85;;;21.60;71.00;;;;;;5115273;28;20367;-65
2022/04/09 14:16:09;;;;;;;14.65;2.47;;;21.40;71.00;;;;;;5114562;28;20410;-65
2022/04/09 14:19:13;;;;;;;12.93;3.25;;;21.70;71.40;;;;;;5114541;28;20065;-64
2022/04/09 14:22:17;;;;;;;13.35;3.25;;;21.60;72.10;;;;;;5114803;28;20066;-64
2022/04/09 14:25:21;;;;;;;10.90;2.55;;;21.40;71.60;;;;;;5114670;28;20586;-65
2022/04/09 14:28:26;;;;;;;10.80;2.90;;;21.30;69.70;;;;;;5113572;28;20378;-65
2022/04/09 14:31:34;;;;;;;19.15;3.13;;;21.10;72.30;;;;;;5114455;28;20063;-65
2022/04/09 14:34:38;;;;;;;13.82;3.28;;;21.10;72.40;;;;;;5114392;28;20043;-65
2022/04/09 14:37:42;;;;;;;13.18;2.58;;;20.80;71.70;;;;;;5114254;28;20038;-64
2022/04/09 14:40:46;;;;;;;13.60;3.17;;;20.80;72.00;;;;;;5114217;28;20046;-64
2022/04/09 14:43:53;;;;;;;19.52;3.33;;;21.00;70.40;;;;;;5114092;28;20051;-65
2022/04/09 14:46:58;;;;;;;12.05;3.35;;;20.50;70.60;;;;;;5113617;28;20042;-64
2022/04/09 14:50:02;;;;;;;15.52;3.47;;;19.80;73.80;;;;;;5114055;28;20031;-64
2022/04/09 14:53:06;;;;;;;13.10;3.35;;;18.50;72.00;;;;;;5113486;28;20059;-65
2022/04/09 14:56:11;;;;;;;18.13;3.72;;;18.80;76.50;;;;;;5113763;28;20046;-64
2022/04/09 14:59:15;;;;;;;12.27;3.50;;;18.70;76.00;;;;;;5113794;28;20042;-64
2022/04/09 15:02:19;;;;;;;15.18;3.20;;;19.00;76.40;;;;;;5113938;28;20043;-64
2022/04/09 15:05:23;;;;;;;16.42;3.13;;;18.80;76.20;;;;;;5114062;28;20898;-64
2022/04/09 15:08:27;;;;;;;13.70;2.15;;;18.90;74.70;;;;;;5113571;28;20043;-64
2022/04/09 15:11:31;;;;;;;13.18;3.03;;;17.00;74.90;;;;;;5113904;28;20043;-63
2022/04/09 15:14:35;;;;;;;11.95;3.45;;;17.20;77.40;;;;;;5113806;28;20058;-64
2022/04/09 15:17:40;;;;;;;16.10;3.33;;;17.20;78.60;;;;;;5113158;28;20047;-65
2022/04/09 15:20:44;;;;;;;18.27;3.80;;;17.40;78.50;;;;;;5113273;28;20093;-64
2022/04/09 15:23:48;;;;;;;15.90;2.97;;;17.60;77.30;;;;;;5113593;28;20395;-65
2022/04/09 15:26:51;;;;;;;15.98;3.00;;;17.80;77.80;;;;;;5112183;28;20047;-64
2022/04/09 15:29:56;;;;;;;14.85;2.72;;;17.70;76.70;;;;;;5112223;28;20386;-64
2022/04/09 15:33:00;;;;;;;16.88;2.80;;;17.40;77.50;;;;;;5113302;28;20251;-64
2022/04/09 15:36:04;;;;;;;14.38;3.65;;;17.00;77.90;;;;;;5112992;28;20054;-64
2022/04/09 15:39:08;;;;;;;15.88;2.92;;;16.70;80.60;;;;;;5113258;28;20047;-64
2022/04/09 15:42:12;;;;;;;14.48;2.50;;;16.00;79.10;;;;;;5113250;28;20062;-64
2022/04/09 15:45:16;;;;;;;17.02;3.45;;;15.80;81.70;;;;;;5113494;28;20046;-65
2022/04/09 15:48:20;;;;;;;19.73;2.70;;;15.90;81.60;;;;;;5112798;28;20058;-64
2022/04/09 15:51:27;;;;;;;13.93;2.88;;;15.80;80.90;;;;;;5111819;28;20039;-64
2022/04/09 15:54:31;;;;;;;13.05;2.40;;;15.80;81.90;;;;;;5112539;28;20054;-64
2022/04/09 15:57:36;;;;;;;20.33;2.70;;;15.70;80.40;;;;;;5112087;28;20046;-64